Airport View

Enter AWOS ICAO identifier for current METAR.

ex. KFNL

KSPA 170915Z AUTO 04010KT 10SM OVC046 05/M02 A3010 RMK AO2

17 Nov 2019 09:23

Frequency: 133.925

Phone: 864-587-2529

Other Area AWOS: KGSP - KGMU - KGYH - KLUX

TAF KGSP 170537Z 1706/1806 03012G20KT P6SM BKN040 FM171200 03011G18KT P6SM SCT060 FM171700 03009KT P6SM FEW250 FM172100 05006KT P6SM FEW250 FM180400 03003KT P6SM BKN050